createdAt,value
2019-01-05T00:00:30.853Z,135.33
2019-01-05T00:03:01.034Z,136.10
2019-01-05T00:05:49.346Z,142.57
2019-01-05T00:08:22.358Z,133.67
2019-01-05T00:11:08.649Z,135.57
2019-01-05T00:13:44.846Z,149.67
2019-01-05T00:16:20.933Z,151.80
2019-01-05T00:18:53.946Z,156.50
2019-01-05T00:21:24.540Z,140.10
2019-01-05T00:24:03.284Z,135.60
2019-01-05T00:26:39.305Z,151.57
2019-01-05T00:29:09.486Z,130.13
2019-01-05T00:31:51.148Z,131.07
2019-01-05T00:34:30.484Z,140.40
2019-01-05T00:37:03.299Z,136.93
2019-01-05T00:39:36.283Z,130.67
2019-01-05T00:42:12.500Z,133.00
2019-01-05T00:44:42.890Z,130.03
2019-01-05T00:47:29.300Z,137.67
2019-01-05T00:50:15.838Z,132.27
2019-01-05T00:53:04.176Z,132.53
2019-01-05T00:55:43.649Z,129.97
2019-01-05T00:58:13.792Z,121.10
2019-01-05T01:01:00.514Z,126.73
2019-01-05T01:03:48.789Z,119.20
2019-01-05T01:06:18.667Z,124.80
2019-01-05T01:08:57.887Z,123.37
2019-01-05T01:11:28.150Z,122.10
2019-01-05T01:14:16.660Z,128.80
2019-01-05T01:17:03.334Z,126.97
2019-01-05T01:19:50.047Z,122.53
2019-01-05T01:22:23.240Z,124.17
2019-01-05T01:24:53.454Z,136.47
2019-01-05T01:27:23.678Z,134.03
2019-01-05T01:29:53.926Z,136.63
2019-01-05T01:32:24.160Z,138.80
2019-01-05T01:34:54.304Z,148.03
2019-01-05T01:37:57.119Z,110.80
2019-01-05T01:40:27.256Z,78.47
2019-01-05T01:43:06.746Z,116.80
2019-01-05T01:45:43.290Z,59.17
2019-01-05T01:48:16.657Z,75.27
2019-01-05T01:51:01.997Z,40.07
2019-01-05T01:53:48.408Z,68.27
2019-01-05T01:56:35.026Z,65.70
2019-01-05T01:59:05.475Z,95.73
2019-01-05T02:01:53.336Z,46.67
2019-01-05T02:04:32.652Z,86.80
2019-01-05T02:07:02.933Z,93.20
2019-01-05T02:09:35.753Z,105.60
2019-01-05T02:12:21.557Z,109.90
2019-01-05T02:14:53.818Z,103.23
2019-01-05T02:17:26.776Z,124.80
2019-01-05T02:20:24.398Z,152.97
2019-01-05T02:23:34.256Z,154.47
2019-01-05T02:26:16.267Z,153.13
2019-01-05T02:29:01.433Z,143.83
2019-01-05T02:31:55.626Z,146.33
2019-01-05T02:34:44.979Z,149.30
2019-01-05T02:37:47.394Z,145.97
2019-01-05T02:40:56.590Z,157.83
2019-01-05T02:44:03.221Z,149.53
2019-01-05T02:46:42.310Z,143.57
2019-01-05T02:49:24.320Z,146.10
2019-01-05T02:52:15.133Z,149.80
2019-01-05T02:55:13.983Z,144.10
2019-01-05T02:58:06.506Z,145.03
2019-01-05T03:00:53.956Z,145.73
2019-01-05T03:03:54.560Z,139.60
2019-01-05T03:06:55.490Z,147.40
2019-01-05T03:09:40.207Z,145.60
2019-01-05T03:12:31.679Z,158.43
2019-01-05T03:15:56.169Z,140.33
2019-01-05T03:18:54.711Z,150.80
2019-01-05T03:21:36.775Z,140.37
2019-01-05T03:24:18.877Z,141.83
2019-01-05T03:27:15.334Z,139.13
2019-01-05T03:30:09.911Z,145.73
2019-01-05T03:33:15.807Z,134.87
2019-01-05T03:36:28.722Z,130.40
2019-01-05T03:39:27.493Z,147.10
2019-01-05T03:42:23.538Z,135.20
2019-01-05T03:45:16.606Z,139.50
2019-01-05T03:48:12.852Z,144.50
2019-01-05T03:51:14.455Z,142.37
2019-01-05T03:54:22.540Z,149.93
2019-01-05T03:57:04.589Z,75.80
2019-01-05T04:00:05.037Z,48.63
2019-01-05T04:03:05.685Z,45.90
2019-01-05T04:05:54.072Z,104.70
2019-01-05T04:09:10.465Z,93.30
2019-01-05T04:12:33.893Z,46.83
2019-01-05T04:15:26.545Z,56.00
2019-01-05T04:18:20.699Z,47.83
2019-01-05T04:21:16.501Z,148.80
2019-01-05T04:23:55.513Z,95.87
2019-01-05T04:27:15.799Z,131.53
2019-01-05T04:30:06.710Z,162.57
2019-01-05T04:33:11.282Z,149.33
2019-01-05T04:35:53.159Z,148.53
2019-01-05T04:39:08.243Z,141.83
2019-01-05T04:42:13.491Z,143.43
2019-01-05T04:45:08.298Z,139.17
2019-01-05T04:48:10.474Z,142.30
2019-01-05T04:51:15.660Z,138.73
2019-01-05T04:54:11.431Z,143.13
2019-01-05T04:57:10.181Z,143.97
2019-01-05T05:00:14.951Z,141.97
2019-01-05T05:03:35.084Z,141.73
2019-01-05T05:06:17.271Z,153.07
2019-01-05T05:09:39.629Z,142.27
2019-01-05T05:12:31.316Z,144.87
2019-01-05T05:15:19.848Z,145.23
2019-01-05T05:18:10.916Z,136.77
2019-01-05T05:21:11.494Z,144.00
2019-01-05T05:24:11.853Z,157.47
2019-01-05T05:26:53.545Z,152.80
2019-01-05T05:29:32.909Z,147.87
2019-01-05T05:32:40.900Z,135.27
2019-01-05T05:35:31.729Z,132.07
2019-01-05T05:38:47.124Z,135.33
2019-01-05T05:41:55.109Z,140.53
2019-01-05T05:44:46.647Z,138.30
2019-01-05T05:47:37.964Z,136.00
2019-01-05T05:50:35.533Z,137.43
2019-01-05T05:53:50.792Z,136.87
2019-01-05T05:56:59.632Z,131.97
2019-01-05T05:59:54.686Z,137.00
2019-01-05T06:02:54.989Z,125.00
2019-01-05T06:06:04.447Z,129.53
2019-01-05T06:08:55.607Z,122.60
2019-01-05T06:11:46.785Z,123.83
2019-01-05T06:14:21.220Z,129.83
2019-01-05T06:17:09.496Z,126.00
2019-01-05T06:20:08.519Z,135.43
2019-01-05T06:22:56.762Z,135.53
2019-01-05T06:25:42.524Z,130.53
2019-01-05T06:28:50.809Z,128.30
2019-01-05T06:31:40.675Z,125.73
2019-01-05T06:34:33.901Z,130.60
2019-01-05T06:37:32.615Z,139.10
2019-01-05T06:40:17.646Z,135.93
2019-01-05T06:43:26.109Z,139.13
2019-01-05T06:46:05.398Z,139.37
2019-01-05T06:49:07.358Z,130.43
2019-01-05T06:51:47.169Z,130.90
2019-01-05T06:54:39.523Z,135.33
2019-01-05T06:57:38.138Z,131.57
2019-01-05T07:00:35.600Z,144.90
2019-01-05T07:03:17.350Z,129.30
2019-01-05T07:06:23.528Z,137.23
2019-01-05T07:09:28.309Z,143.33
2019-01-05T07:12:16.416Z,131.17
2019-01-05T07:14:58.120Z,133.40
2019-01-05T07:17:53.779Z,127.67
2019-01-05T07:20:48.209Z,134.93
2019-01-05T07:23:59.810Z,127.67
2019-01-05T07:27:09.622Z,140.50
2019-01-05T07:30:16.458Z,167.70
2019-01-05T07:33:01.814Z,382.37
2019-01-05T07:36:23.861Z,231.63
2019-01-05T07:39:13.894Z,182.93
2019-01-05T07:41:49.891Z,179.73
2019-01-05T07:45:00.887Z,181.10
2019-01-05T07:48:10.590Z,360.57
2019-01-05T07:51:19.051Z,145.73
2019-01-05T07:54:19.693Z,179.73
2019-01-05T07:57:18.471Z,295.87
2019-01-05T08:00:31.099Z,150.43
2019-01-05T08:03:26.534Z,174.20
2019-01-05T08:06:06.843Z,143.33
2019-01-05T08:09:11.221Z,170.53
2019-01-05T08:11:53.286Z,169.40
2019-01-05T08:14:55.246Z,208.37
2019-01-05T08:17:44.719Z,244.13
2019-01-05T08:20:58.904Z,124.57
2019-01-05T08:23:45.258Z,126.23
2019-01-05T08:26:33.097Z,128.03
2019-01-05T08:29:20.995Z,128.33
2019-01-05T08:32:35.228Z,295.00
2019-01-05T08:35:29.109Z,450.37
2019-01-05T08:38:40.215Z,183.17
2019-01-05T08:41:20.979Z,550.97
2019-01-05T08:44:28.684Z,139.60
2019-01-05T08:47:32.327Z,202.67
2019-01-05T08:50:20.082Z,235.90
2019-01-05T08:53:24.566Z,127.53
2019-01-05T08:56:30.629Z,122.93
2019-01-05T08:59:35.554Z,128.77
2019-01-05T09:02:54.406Z,120.50
2019-01-05T09:05:47.685Z,142.67
2019-01-05T09:08:47.501Z,182.27
2019-01-05T09:11:38.125Z,178.47
2019-01-05T09:14:50.696Z,207.07
2019-01-05T09:17:41.638Z,151.30
2019-01-05T09:20:26.663Z,135.40
2019-01-05T09:23:33.383Z,230.87
2019-01-05T09:26:22.748Z,202.17
2019-01-05T09:29:20.096Z,196.03
2019-01-05T09:32:18.487Z,293.73
2019-01-05T09:34:58.846Z,220.10
2019-01-05T09:38:00.764Z,174.90
2019-01-05T09:41:24.285Z,186.43
2019-01-05T09:44:18.817Z,201.83
2019-01-05T09:47:10.095Z,110.40
2019-01-05T09:50:01.166Z,168.20
2019-01-05T09:53:10.466Z,177.90
2019-01-05T09:56:08.070Z,178.50
2019-01-05T09:58:47.040Z,177.57
2019-01-05T10:01:51.867Z,138.83
2019-01-05T10:04:42.726Z,126.80
2019-01-05T10:07:58.336Z,142.77
2019-01-05T10:10:50.284Z,146.57
2019-01-05T10:13:58.438Z,133.60
2019-01-05T10:17:04.360Z,129.60
2019-01-05T10:20:14.168Z,132.97
2019-01-05T10:22:59.616Z,135.57
2019-01-05T10:26:16.579Z,143.30
2019-01-05T10:29:31.931Z,140.87
2019-01-05T10:32:41.208Z,136.80
2019-01-05T10:35:21.739Z,134.20
2019-01-05T10:38:03.709Z,149.87
2019-01-05T10:41:00.635Z,140.67
2019-01-05T10:44:04.028Z,147.70
2019-01-05T10:47:10.276Z,146.93
2019-01-05T10:50:13.963Z,152.57
2019-01-05T10:53:08.527Z,156.83
2019-01-05T10:56:13.735Z,140.20
2019-01-05T10:59:24.966Z,154.90
2019-01-05T11:02:35.536Z,149.50
2019-01-05T11:05:34.114Z,144.63
2019-01-05T11:08:43.275Z,156.70
2019-01-05T11:11:55.987Z,164.90
2019-01-05T11:14:50.289Z,150.43
2019-01-05T11:17:35.722Z,148.93
2019-01-05T11:20:49.592Z,149.17
2019-01-05T11:23:25.685Z,157.63
2019-01-05T11:26:21.407Z,164.40
2019-01-05T11:29:35.315Z,168.30
2019-01-05T11:32:23.798Z,148.03
2019-01-05T11:35:16.727Z,143.40
2019-01-05T11:38:35.135Z,139.77
2019-01-05T11:41:53.520Z,148.33
2019-01-05T11:45:09.221Z,158.53
2019-01-05T11:48:05.074Z,168.13
2019-01-05T11:51:02.755Z,159.70
2019-01-05T11:54:10.326Z,160.67
2019-01-05T11:57:01.665Z,170.27
2019-01-05T11:59:55.868Z,177.50
2019-01-05T12:02:47.013Z,151.77
2019-01-05T12:05:25.933Z,161.97
2019-01-05T12:08:15.875Z,149.17
2019-01-05T12:10:53.275Z,142.93
2019-01-05T12:13:57.002Z,145.10
2019-01-05T12:16:45.361Z,142.37
2019-01-05T12:19:27.326Z,153.13
2019-01-05T12:22:32.008Z,150.37
2019-01-05T12:25:16.654Z,236.40
2019-01-05T12:27:54.051Z,155.40
2019-01-05T12:30:49.906Z,152.50
2019-01-05T12:33:51.018Z,159.83
2019-01-05T12:36:40.848Z,163.07
2019-01-05T12:39:58.051Z,149.17
2019-01-05T12:42:54.012Z,163.33
2019-01-05T12:46:06.582Z,176.20
2019-01-05T12:49:11.851Z,148.03
2019-01-05T12:51:54.214Z,154.10
2019-01-05T12:55:10.553Z,152.60
2019-01-05T12:57:49.830Z,147.70
2019-01-05T13:00:57.945Z,154.47
2019-01-05T13:04:15.866Z,140.63
2019-01-05T13:07:06.917Z,168.63
2019-01-05T13:10:14.342Z,163.77
2019-01-05T13:13:10.172Z,174.23
2019-01-05T13:16:11.727Z,145.30
2019-01-05T13:19:19.711Z,158.90
2019-01-05T13:22:26.571Z,171.87
2019-01-05T13:25:25.682Z,146.80
2019-01-05T13:28:33.813Z,157.90
2019-01-05T13:31:56.995Z,164.70
2019-01-05T13:34:51.544Z,161.77
2019-01-05T13:37:59.598Z,167.60
2019-01-05T13:41:01.636Z,155.37
2019-01-05T13:43:49.750Z,166.03
2019-01-05T13:46:39.880Z,152.90
2019-01-05T13:49:40.885Z,161.63
2019-01-05T13:52:45.475Z,153.77
2019-01-05T13:55:46.904Z,136.17
2019-01-05T13:58:33.371Z,159.33
2019-01-05T14:01:21.698Z,151.97
2019-01-05T14:03:55.039Z,157.17
2019-01-05T14:06:41.509Z,144.50
2019-01-05T14:09:11.769Z,150.10
2019-01-05T14:11:47.929Z,140.57
2019-01-05T14:14:18.118Z,145.57
2019-01-05T14:17:03.673Z,150.40
2019-01-05T14:19:43.000Z,138.43
2019-01-05T14:22:29.694Z,151.20
2019-01-05T14:25:14.865Z,150.40
2019-01-05T14:28:03.442Z,142.23
2019-01-05T14:30:50.162Z,156.73
2019-01-05T14:33:20.386Z,157.47
2019-01-05T14:35:53.403Z,145.50
2019-01-05T14:38:32.358Z,168.33
2019-01-05T14:41:14.763Z,147.00
2019-01-05T14:43:47.823Z,142.63
2019-01-05T14:46:34.754Z,156.37
2019-01-05T14:49:14.107Z,159.40
2019-01-05T14:51:47.305Z,148.97
2019-01-05T14:54:17.529Z,150.07
2019-01-05T14:56:58.235Z,150.83
2019-01-05T14:59:45.471Z,149.77
2019-01-05T15:02:15.720Z,156.47
2019-01-05T15:04:48.907Z,165.57
2019-01-05T15:07:28.373Z,140.53
2019-01-05T15:09:58.534Z,148.07
2019-01-05T15:12:37.779Z,148.87
2019-01-05T15:15:10.732Z,145.90
2019-01-05T15:17:57.518Z,152.03
2019-01-05T15:20:30.341Z,150.33
2019-01-05T15:23:00.560Z,167.77
2019-01-05T15:25:46.178Z,154.40
2019-01-05T15:28:16.459Z,165.00
2019-01-05T15:30:49.488Z,147.00
2019-01-05T15:33:22.412Z,148.90
2019-01-05T15:36:08.891Z,145.93
2019-01-05T15:38:42.204Z,153.30
2019-01-05T15:41:13.318Z,148.70
2019-01-05T15:43:55.741Z,145.20
2019-01-05T15:46:42.556Z,146.00
2019-01-05T15:49:12.997Z,139.47
2019-01-05T15:51:43.216Z,143.20
2019-01-05T15:54:29.862Z,148.23
2019-01-05T15:57:05.969Z,150.07
2019-01-05T15:59:39.215Z,153.83
2019-01-05T16:02:25.949Z,142.70
2019-01-05T16:05:07.478Z,144.80
2019-01-05T16:07:52.493Z,141.47
2019-01-05T16:10:22.752Z,147.60
2019-01-05T16:13:11.414Z,139.37
2019-01-05T16:15:44.614Z,152.30
2019-01-05T16:18:20.836Z,136.73
2019-01-05T16:20:57.056Z,143.20
2019-01-05T16:23:27.254Z,139.30
2019-01-05T16:26:14.081Z,139.73
2019-01-05T16:28:44.388Z,139.73
2019-01-05T16:31:20.313Z,143.97
2019-01-05T16:34:05.191Z,150.87
2019-01-05T16:36:35.402Z,145.20
2019-01-05T16:39:18.179Z,143.23
2019-01-05T16:41:48.434Z,144.13
2019-01-05T16:44:21.544Z,144.90
2019-01-05T16:47:01.107Z,142.70
2019-01-05T16:49:31.321Z,143.03
2019-01-05T16:52:13.858Z,151.67
2019-01-05T16:55:00.446Z,144.20
2019-01-05T16:57:40.817Z,147.27
2019-01-05T17:00:27.802Z,150.30
2019-01-05T17:03:10.001Z,137.90
2019-01-05T17:05:46.331Z,140.53
2019-01-05T17:08:28.809Z,148.87
2019-01-05T17:11:07.773Z,145.80
2019-01-05T17:13:44.003Z,137.57
2019-01-05T17:16:17.218Z,145.67
2019-01-05T17:18:47.426Z,142.43
2019-01-05T17:21:33.016Z,139.20
2019-01-05T17:24:12.141Z,136.53
2019-01-05T17:26:45.104Z,139.50
2019-01-05T17:29:27.918Z,143.33
2019-01-05T17:32:01.126Z,137.70
2019-01-05T17:34:31.284Z,145.73
2019-01-05T17:37:10.573Z,140.33
2019-01-05T17:39:40.807Z,133.47
2019-01-05T17:42:26.094Z,131.77
2019-01-05T17:44:57.240Z,137.73
2019-01-05T17:47:45.160Z,137.13
2019-01-05T17:50:32.033Z,139.40
2019-01-05T17:53:02.298Z,139.60
2019-01-05T17:55:38.284Z,46.10
2019-01-05T17:58:11.204Z,24.70
2019-01-05T18:00:50.543Z,35.20
2019-01-05T18:03:29.397Z,13.77
2019-01-05T18:05:59.573Z,25.13
2019-01-05T18:08:35.556Z,85.03
2019-01-05T18:11:22.264Z,154.83
2019-01-05T18:13:59.193Z,42.90
2019-01-05T18:16:45.615Z,13.57
2019-01-05T18:19:18.930Z,19.67
2019-01-05T18:21:49.170Z,69.57
2019-01-05T18:24:19.391Z,140.60
2019-01-05T18:26:52.596Z,162.53
2019-01-05T18:29:25.578Z,154.27
2019-01-05T18:31:55.789Z,107.07
2019-01-05T18:34:29.763Z,70.73
2019-01-05T18:37:18.448Z,102.07
2019-01-05T18:39:48.818Z,44.20
2019-01-05T18:42:28.657Z,109.37
2019-01-05T18:45:14.955Z,47.13
2019-01-05T18:48:01.806Z,31.57
2019-01-05T18:50:47.145Z,19.30
2019-01-05T18:53:26.159Z,85.47
2019-01-05T18:55:59.171Z,97.40
2019-01-05T18:58:35.770Z,81.43
2019-01-05T19:01:22.176Z,131.20
2019-01-05T19:04:04.818Z,171.67
2019-01-05T19:06:35.092Z,155.80
2019-01-05T19:09:07.145Z,155.70
2019-01-05T19:11:41.142Z,151.60
2019-01-05T19:14:30.112Z,230.87
2019-01-05T19:17:12.485Z,16.20
2019-01-05T19:19:58.878Z,10.80
2019-01-05T19:22:47.160Z,15.23
2019-01-05T19:25:32.292Z,10.10
2019-01-05T19:28:05.275Z,7.97
2019-01-05T19:30:41.198Z,9.93
2019-01-05T19:33:11.483Z,7.67
2019-01-05T19:35:57.948Z,11.83
2019-01-05T19:38:34.404Z,12.83
2019-01-05T19:41:21.072Z,11.00
2019-01-05T19:44:03.531Z,8.53
2019-01-05T19:46:36.557Z,11.17
2019-01-05T19:49:21.872Z,9.83
2019-01-05T19:52:07.390Z,6.63
2019-01-05T19:54:43.729Z,4.27
2019-01-05T19:57:30.261Z,9.10
2019-01-05T20:00:16.941Z,12.57
2019-01-05T20:02:55.783Z,5.70
2019-01-05T20:05:42.237Z,11.67
2019-01-05T20:08:24.824Z,7.87
2019-01-05T20:10:55.081Z,7.53
2019-01-05T20:13:34.345Z,7.43
2019-01-05T20:16:20.786Z,8.47
2019-01-05T20:18:51.435Z,5.47
2019-01-05T20:21:33.862Z,7.53
2019-01-05T20:24:16.111Z,8.60
2019-01-05T20:27:02.600Z,8.80
2019-01-05T20:29:36.037Z,10.73
2019-01-05T20:32:06.272Z,11.10
2019-01-05T20:34:40.034Z,9.50
2019-01-05T20:37:28.603Z,7.23
2019-01-05T20:40:16.101Z,9.80
2019-01-05T20:43:02.825Z,10.73
2019-01-05T20:45:49.631Z,6.90
2019-01-05T20:48:36.201Z,12.27
2019-01-05T20:51:22.691Z,7.83
2019-01-05T20:53:59.055Z,7.87
2019-01-05T20:56:41.971Z,10.63
2019-01-05T20:59:28.378Z,8.47
2019-01-05T21:02:01.385Z,12.10
2019-01-05T21:04:31.526Z,12.33
2019-01-05T21:07:20.254Z,9.60
2019-01-05T21:10:06.827Z,4.87
2019-01-05T21:12:46.135Z,10.37
2019-01-05T21:15:16.342Z,8.60
2019-01-05T21:18:05.085Z,14.23
2019-01-05T21:20:41.325Z,9.50
2019-01-05T21:23:20.889Z,9.67
2019-01-05T21:26:08.174Z,10.53
2019-01-05T21:28:55.596Z,8.53
2019-01-05T21:31:28.796Z,6.33
2019-01-05T21:33:59.056Z,5.87
2019-01-05T21:36:45.658Z,12.63
2019-01-05T21:39:32.099Z,8.93
2019-01-05T21:42:02.356Z,10.93
2019-01-05T21:44:44.572Z,7.47
2019-01-05T21:47:31.259Z,12.17
2019-01-05T21:50:07.501Z,10.27
2019-01-05T21:52:43.951Z,12.93
2019-01-05T21:55:23.418Z,10.10
2019-01-05T21:58:12.070Z,17.20
2019-01-05T22:00:58.782Z,15.60
2019-01-05T22:03:45.505Z,13.93
2019-01-05T22:06:31.981Z,11.77
2019-01-05T22:09:20.520Z,16.77
2019-01-05T22:11:59.753Z,12.80
2019-01-05T22:14:46.377Z,14.93
2019-01-05T22:17:32.970Z,5.67
2019-01-05T22:20:18.173Z,15.37
2019-01-05T22:22:51.224Z,15.47
2019-01-05T22:25:24.175Z,10.87
2019-01-05T22:28:12.500Z,12.77
2019-01-05T22:30:45.709Z,13.03
2019-01-05T22:33:32.514Z,16.80
2019-01-05T22:36:18.895Z,9.67
2019-01-05T22:39:05.794Z,12.53
2019-01-05T22:41:51.233Z,7.53
2019-01-05T22:44:37.876Z,15.33
2019-01-05T22:47:25.254Z,10.57
2019-01-05T22:50:01.119Z,8.57
2019-01-05T22:52:31.330Z,15.17
2019-01-05T22:55:01.546Z,9.93
2019-01-05T22:57:40.857Z,22.37
2019-01-05T23:00:12.663Z,16.50
2019-01-05T23:02:54.756Z,12.30
2019-01-05T23:05:41.311Z,11.70
2019-01-05T23:08:27.965Z,13.10
2019-01-05T23:11:07.191Z,15.00
2019-01-05T23:13:54.189Z,17.87
2019-01-05T23:16:30.480Z,9.10
2019-01-05T23:19:00.781Z,14.13
2019-01-05T23:21:30.989Z,16.57
2019-01-05T23:24:01.206Z,12.47
2019-01-05T23:26:43.719Z,10.00
2019-01-05T23:29:15.013Z,14.60
2019-01-05T23:32:03.897Z,12.60
2019-01-05T23:34:49.436Z,12.83
2019-01-05T23:37:35.804Z,11.13
2019-01-05T23:40:07.307Z,14.63
2019-01-05T23:42:43.048Z,9.13
2019-01-05T23:45:13.255Z,10.83
2019-01-05T23:47:59.766Z,15.00
2019-01-05T23:50:41.990Z,19.37
2019-01-05T23:53:12.222Z,18.87
2019-01-05T23:55:45.113Z,22.20
2019-01-05T23:58:35.192Z,16.77
